Terminal Aerodrome Forecast
Issued by NWS

Home | Current Version | Previous Version | Text Only | Print | Product List | Glossary On
Versions: 1 2 3 4 5 6 7 8 9 10 11 12 13 14 15 16
022
FTUS43 KAPX 261250 AAA
TAFPLN
TAF AMD
KPLN 261250Z 2613/2712 12007KT 4SM BR BKN120
      TEMPO 2613/2615 P6SM NSW SCT120
     FM261500 14012G23KT P6SM BKN120
     FM262100 17013G24KT P6SM VCSH BKN040
     FM262300 14008KT 4SM BR VCSH OVC045
     FM270300 15006KT 3SM BR VCSH BKN025
     FM270700 16007KT 3SM BR VCSH OVC025 WS015/17045KT
     FM270900 16006KT P6SM VCSH OVC050 WS015/17045KT=

USA.gov is the U.S. government's official web portal to all federal, state and local government web resources and services.